Terminal Aerodrome Forecast
Issued by NWS Boston, MA

Home | Current Version | Previous Version | Text Only | Print | Product List | Glossary Off
Versions: 1 2 3 4 5 6 7 8 9 10 11 12 13 14 15 16 17 18 19 20 21 22 23 24 25 26 27
000 FTUS41 KBOX 190927 AAA TAFPVD TAF AMD KPVD 190927Z 1909/2006 00000KT P6SM SKC FM191800 19011G20KT P6SM SCT030 BKN150 FM192000 19011KT P6SM SCT030 BKN100 FM200000 19008KT 5SM -SHRA BR OVC030 WS020/20035KT FM200300 20008KT 2SM -SHRA BR OVC015 WS020/22040KT=

USA.gov is the U.S. government's official web portal to all federal, state and local government web resources and services.